createdAt,value
2019-01-31T00:00:38.525Z,6.90
2019-01-31T00:03:47.424Z,3.35
2019-01-31T00:06:56.976Z,6.42
2019-01-31T00:09:56.290Z,2.67
2019-01-31T00:13:00.800Z,6.85
2019-01-31T00:15:39.719Z,3.52
2019-01-31T00:18:27.492Z,6.03
2019-01-31T00:21:49.826Z,4.08
2019-01-31T00:24:25.343Z,4.92
2019-01-31T00:27:22.881Z,3.77
2019-01-31T00:30:26.425Z,3.75
2019-01-31T00:33:31.886Z,6.37
2019-01-31T00:36:53.364Z,2.58
2019-01-31T00:40:10.930Z,5.30
2019-01-31T00:43:11.066Z,4.00
2019-01-31T00:46:12.062Z,4.70
2019-01-31T00:49:37.820Z,7.80
2019-01-31T00:52:39.022Z,5.65
2019-01-31T00:56:01.633Z,8.10
2019-01-31T00:59:24.364Z,3.37
2019-01-31T01:02:22.110Z,3.95
2019-01-31T01:05:31.988Z,6.47
2019-01-31T01:08:14.341Z,7.15
2019-01-31T01:11:26.606Z,3.27
2019-01-31T01:14:28.066Z,5.35
2019-01-31T01:17:24.284Z,6.08
2019-01-31T01:20:46.001Z,4.65
2019-01-31T01:23:33.294Z,2.70
2019-01-31T01:26:30.008Z,6.72
2019-01-31T01:29:21.794Z,4.65
2019-01-31T01:32:16.196Z,4.10
2019-01-31T02:27:31.174Z,2.85
2019-01-31T02:30:34.921Z,4.08
2019-01-31T02:33:45.623Z,5.95
2019-01-31T02:36:39.772Z,3.22
2019-01-31T02:40:04.556Z,6.00
2019-01-31T02:43:11.450Z,4.83
2019-01-31T02:46:06.031Z,5.00
2019-01-31T02:49:15.402Z,4.40
2019-01-31T02:52:07.705Z,7.42
2019-01-31T02:55:12.813Z,7.40
2019-01-31T02:58:06.747Z,3.30
2019-01-31T03:01:10.250Z,4.00
2019-01-31T03:04:02.371Z,4.53
2019-01-31T03:07:20.562Z,7.20
2019-01-31T03:10:14.322Z,3.12
2019-01-31T03:13:29.461Z,4.25
2019-01-31T03:16:41.691Z,4.53
2019-01-31T03:19:43.299Z,8.70
2019-01-31T03:22:49.279Z,5.83
2019-01-31T03:25:29.764Z,6.58
2019-01-31T03:28:21.677Z,3.92
2019-01-31T03:31:19.402Z,4.78
2019-01-31T03:34:13.064Z,4.90
2019-01-31T03:37:21.948Z,4.33
2019-01-31T03:40:25.918Z,4.00
2019-01-31T03:43:22.516Z,4.83
2019-01-31T03:46:35.914Z,5.08
2019-01-31T03:49:44.458Z,4.95
2019-01-31T03:52:52.822Z,7.53
2019-01-31T03:55:41.222Z,6.03
2019-01-31T03:58:45.075Z,5.58
2019-01-31T04:02:18.123Z,3.42
2019-01-31T04:05:11.245Z,3.40
2019-01-31T04:07:40.625Z,6.70
2019-01-31T04:10:18.669Z,4.17
2019-01-31T04:12:41.515Z,5.85
2019-01-31T04:15:11.267Z,4.05
2019-01-31T04:17:40.659Z,5.08
2019-01-31T04:20:10.304Z,7.28
2019-01-31T04:22:39.794Z,6.45
2019-01-31T04:25:09.275Z,7.47
2019-01-31T04:27:38.918Z,5.58
2019-01-31T04:30:11.022Z,8.83
2019-01-31T04:32:40.520Z,9.30
2019-01-31T04:35:09.865Z,5.75
2019-01-31T04:37:39.355Z,8.15
2019-01-31T04:40:09.453Z,8.43
2019-01-31T04:42:38.980Z,9.00
2019-01-31T04:45:08.839Z,10.23
2019-01-31T04:47:38.208Z,9.40
2019-01-31T04:50:09.833Z,10.03
2019-01-31T04:52:39.261Z,7.00
2019-01-31T04:55:09.122Z,10.18
2019-01-31T04:57:38.544Z,15.53
2019-01-31T05:00:09.615Z,16.48
2019-01-31T05:02:39.307Z,11.22
2019-01-31T05:05:09.157Z,17.98
2019-01-31T05:07:38.715Z,11.48
2019-01-31T05:10:10.234Z,12.98
2019-01-31T05:12:39.850Z,19.00
2019-01-31T05:15:11.863Z,14.98
2019-01-31T05:17:41.398Z,10.13
2019-01-31T05:20:14.283Z,12.85
2019-01-31T05:22:43.928Z,15.48
2019-01-31T05:25:14.964Z,15.00
2019-01-31T05:27:44.445Z,13.40
2019-01-31T05:30:15.732Z,13.15
2019-01-31T05:32:45.376Z,12.45
2019-01-31T05:35:14.840Z,19.12
2019-01-31T05:37:44.304Z,12.50
2019-01-31T05:40:15.818Z,16.93
2019-01-31T05:42:45.295Z,18.35
2019-01-31T05:45:16.507Z,20.52
2019-01-31T05:47:45.962Z,20.02
2019-01-31T05:50:17.409Z,14.85
2019-01-31T05:52:46.951Z,19.90
2019-01-31T05:55:16.447Z,22.20
2019-01-31T05:57:46.142Z,16.48
2019-01-31T06:00:24.439Z,19.70
2019-01-31T06:02:53.921Z,16.10
2019-01-31T06:05:23.357Z,15.88
2019-01-31T06:07:52.692Z,13.32
2019-01-31T06:10:22.075Z,12.75
2019-01-31T06:12:51.686Z,35.15
2019-01-31T06:15:21.182Z,25.00
2019-01-31T06:17:50.946Z,38.90
2019-01-31T06:20:23.198Z,17.12
2019-01-31T06:22:52.780Z,28.05
2019-01-31T06:25:22.227Z,27.27
2019-01-31T06:27:52.077Z,29.40
2019-01-31T06:30:21.504Z,26.45
2019-01-31T06:32:51.123Z,32.03
2019-01-31T06:35:20.555Z,27.45
2019-01-31T06:37:50.082Z,24.15
2019-01-31T06:40:20.483Z,32.73
2019-01-31T06:42:50.306Z,39.95
2019-01-31T06:45:21.080Z,31.40
2019-01-31T06:47:50.811Z,29.90
2019-01-31T06:50:20.214Z,23.67
2019-01-31T06:52:49.611Z,18.65
2019-01-31T06:55:18.952Z,16.00
2019-01-31T06:57:48.427Z,17.17
2019-01-31T07:00:20.361Z,15.10
2019-01-31T07:02:50.280Z,23.05
2019-01-31T07:05:20.021Z,50.48
2019-01-31T07:07:49.524Z,40.38
2019-01-31T07:10:27.196Z,39.70
2019-01-31T07:12:56.643Z,45.28
2019-01-31T07:15:26.190Z,62.67
2019-01-31T07:17:55.653Z,64.55
2019-01-31T07:20:25.049Z,58.70
2019-01-31T07:22:54.789Z,58.50
2019-01-31T07:25:25.793Z,61.70
2019-01-31T07:27:55.542Z,51.80
2019-01-31T07:30:26.821Z,39.60
2019-01-31T07:32:56.508Z,33.20
2019-01-31T07:35:26.084Z,30.97
2019-01-31T07:37:55.655Z,26.90
2019-01-31T07:40:25.307Z,29.48
2019-01-31T07:42:54.727Z,29.90
2019-01-31T07:45:27.255Z,23.45
2019-01-31T07:47:57.230Z,24.63
2019-01-31T07:50:27.242Z,24.30
2019-01-31T07:52:57.026Z,25.27
2019-01-31T07:55:26.582Z,34.25
2019-01-31T07:57:56.147Z,38.17
2019-01-31T08:00:25.737Z,37.33
2019-01-31T08:02:55.225Z,36.80
2019-01-31T08:05:24.880Z,42.93
2019-01-31T08:07:55.600Z,38.65
2019-01-31T08:10:37.205Z,42.60
2019-01-31T08:13:07.103Z,45.23
2019-01-31T08:15:37.116Z,48.55
2019-01-31T08:18:06.835Z,43.90
2019-01-31T08:20:36.643Z,36.93
2019-01-31T08:23:06.289Z,31.42
2019-01-31T08:25:36.141Z,30.77
2019-01-31T08:28:06.684Z,27.62
2019-01-31T08:30:38.616Z,26.62
2019-01-31T08:33:08.228Z,35.35
2019-01-31T08:35:38.123Z,34.83
2019-01-31T08:38:07.486Z,28.38
2019-01-31T08:40:37.470Z,24.40
2019-01-31T08:43:06.720Z,25.82
2019-01-31T08:45:36.020Z,25.32
2019-01-31T08:48:06.032Z,34.05
2019-01-31T08:50:35.662Z,48.63
2019-01-31T08:53:05.400Z,47.23
2019-01-31T08:55:35.084Z,52.50
2019-01-31T08:58:04.642Z,53.73
2019-01-31T09:00:34.343Z,51.48
2019-01-31T09:03:03.997Z,51.75
2019-01-31T09:05:33.545Z,47.70
2019-01-31T09:08:02.933Z,45.78
2019-01-31T09:10:34.877Z,40.48
2019-01-31T09:13:07.195Z,25.77
2019-01-31T09:15:36.682Z,25.68
2019-01-31T09:18:07.138Z,29.63
2019-01-31T09:20:49.906Z,28.10
2019-01-31T09:23:59.703Z,39.92
2019-01-31T09:27:14.193Z,31.75
2019-01-31T09:30:14.362Z,20.55
2019-01-31T09:33:35.693Z,12.50
2019-01-31T09:36:42.298Z,11.60
2019-01-31T09:39:46.259Z,13.07
2019-01-31T09:42:44.075Z,15.70
2019-01-31T09:45:44.629Z,18.93
2019-01-31T09:48:20.683Z,18.10
2019-01-31T09:51:15.334Z,37.60
2019-01-31T09:53:57.195Z,75.07
2019-01-31T09:56:50.807Z,52.93
2019-01-31T10:00:01.035Z,36.10
2019-01-31T10:03:16.459Z,28.77
2019-01-31T10:06:01.397Z,21.93
2019-01-31T10:09:18.172Z,14.70
2019-01-31T10:12:23.986Z,23.07
2019-01-31T10:15:23.818Z,16.93
2019-01-31T10:18:27.920Z,18.80
2019-01-31T10:21:21.129Z,18.50
2019-01-31T10:24:16.960Z,20.60
2019-01-31T10:27:00.651Z,13.60
2019-01-31T10:29:58.971Z,11.57
2019-01-31T10:33:08.538Z,7.00
2019-01-31T10:36:12.446Z,8.25
2019-01-31T10:39:07.708Z,12.60
2019-01-31T10:42:02.434Z,21.60
2019-01-31T10:45:29.555Z,23.53
2019-01-31T10:48:24.667Z,16.90
2019-01-31T10:51:30.163Z,13.57
2019-01-31T10:54:35.726Z,14.70
2019-01-31T10:57:42.119Z,13.97
2019-01-31T11:00:22.517Z,12.30
2019-01-31T11:03:25.341Z,7.40
2019-01-31T11:06:40.992Z,14.30
2019-01-31T11:09:54.417Z,7.67
2019-01-31T11:13:00.883Z,13.27
2019-01-31T11:16:05.962Z,5.83
2019-01-31T11:19:15.047Z,8.73
2019-01-31T11:22:15.354Z,6.73
2019-01-31T11:25:23.037Z,6.57
2019-01-31T11:28:10.518Z,5.83
2019-01-31T11:31:07.031Z,6.83
2019-01-31T11:34:33.056Z,5.97
2019-01-31T11:37:30.827Z,5.30
2019-01-31T11:40:22.907Z,5.00
2019-01-31T11:43:32.255Z,4.87
2019-01-31T11:46:24.858Z,13.90
2019-01-31T11:49:12.251Z,8.13
2019-01-31T11:52:44.026Z,7.43
2019-01-31T11:56:00.488Z,10.30
2019-01-31T11:58:55.522Z,26.50
2019-01-31T12:01:24.844Z,44.43
2019-01-31T12:03:57.924Z,58.53
2019-01-31T12:06:27.275Z,29.43
2019-01-31T12:08:57.346Z,40.50
2019-01-31T12:11:26.891Z,12.03
2019-01-31T12:13:56.930Z,9.50
2019-01-31T12:16:26.294Z,10.40
2019-01-31T12:18:56.343Z,11.33
2019-01-31T12:21:25.978Z,5.27
2019-01-31T12:23:55.974Z,8.53
2019-01-31T12:26:25.676Z,7.23
2019-01-31T12:28:55.368Z,6.83
2019-01-31T12:31:24.728Z,8.87
2019-01-31T12:33:54.167Z,5.87
2019-01-31T12:36:23.583Z,3.70
2019-01-31T12:38:54.854Z,4.00
2019-01-31T12:41:24.466Z,6.60
2019-01-31T12:43:53.949Z,3.70
2019-01-31T12:46:23.497Z,7.97
2019-01-31T12:48:52.884Z,7.77
2019-01-31T12:51:22.470Z,6.93
2019-01-31T12:53:51.978Z,4.87
2019-01-31T12:56:21.659Z,10.20
2019-01-31T12:58:51.030Z,10.00
2019-01-31T13:01:20.564Z,7.77
2019-01-31T13:03:50.171Z,4.07
2019-01-31T13:06:19.747Z,2.00
2019-01-31T13:08:49.336Z,2.70
2019-01-31T13:11:18.788Z,3.60
2019-01-31T13:13:48.329Z,3.33
2019-01-31T13:16:17.844Z,4.77
2019-01-31T13:18:47.452Z,4.17
2019-01-31T13:21:16.820Z,4.80
2019-01-31T13:23:46.511Z,2.70
2019-01-31T13:26:16.067Z,3.20
2019-01-31T13:28:45.541Z,3.57
2019-01-31T13:31:15.025Z,3.37
2019-01-31T13:33:46.646Z,5.67
2019-01-31T13:36:16.411Z,8.67
2019-01-31T13:38:45.891Z,8.53
2019-01-31T13:41:15.487Z,6.17
2019-01-31T13:43:45.007Z,5.13
2019-01-31T13:46:14.378Z,9.00
2019-01-31T13:48:44.017Z,4.30
2019-01-31T13:51:13.453Z,4.30
2019-01-31T13:53:42.867Z,5.80
2019-01-31T13:56:12.433Z,4.03
2019-01-31T13:58:42.034Z,7.80
2019-01-31T14:01:11.412Z,5.37
2019-01-31T14:03:40.950Z,10.77
2019-01-31T14:06:10.479Z,6.20
2019-01-31T14:08:40.263Z,7.30
2019-01-31T14:11:09.677Z,7.40
2019-01-31T14:13:39.326Z,5.90
2019-01-31T14:16:08.725Z,5.43
2019-01-31T14:18:38.360Z,7.77
2019-01-31T14:21:08.129Z,4.33
2019-01-31T14:23:37.700Z,6.33
2019-01-31T14:26:07.582Z,6.23
2019-01-31T14:28:37.327Z,5.73
2019-01-31T14:31:07.130Z,5.00
2019-01-31T14:33:38.362Z,2.70
2019-01-31T14:36:08.423Z,4.63
2019-01-31T14:38:37.930Z,3.80
2019-01-31T14:41:07.700Z,2.63
2019-01-31T14:43:37.061Z,3.97
2019-01-31T14:46:07.224Z,6.03
2019-01-31T14:48:37.367Z,4.90
2019-01-31T14:51:07.507Z,6.10
2019-01-31T14:53:37.035Z,9.97
2019-01-31T14:56:06.856Z,5.07
2019-01-31T14:58:36.229Z,7.93
2019-01-31T15:01:05.765Z,6.73
2019-01-31T15:03:35.195Z,7.63
2019-01-31T15:06:04.642Z,7.27
2019-01-31T15:08:34.197Z,7.23
2019-01-31T15:11:03.622Z,6.60
2019-01-31T15:13:33.024Z,10.43
2019-01-31T15:16:02.499Z,8.47
2019-01-31T15:18:32.126Z,6.83
2019-01-31T15:21:01.510Z,5.03
2019-01-31T15:23:31.158Z,5.50
2019-01-31T15:26:00.591Z,7.77
2019-01-31T15:28:30.313Z,8.00
2019-01-31T15:30:59.719Z,3.33
2019-01-31T15:33:29.346Z,3.50
2019-01-31T15:35:58.839Z,4.13
2019-01-31T15:38:28.878Z,5.80
2019-01-31T15:40:58.340Z,5.92
2019-01-31T15:43:27.864Z,4.15
2019-01-31T15:45:57.860Z,8.90
2019-01-31T15:48:27.478Z,3.95
2019-01-31T15:50:57.009Z,4.78
2019-01-31T15:53:26.673Z,3.50
2019-01-31T15:55:56.166Z,3.22
2019-01-31T15:58:25.884Z,4.80
2019-01-31T16:00:57.303Z,4.65
2019-01-31T16:03:27.814Z,2.80
2019-01-31T16:05:57.871Z,5.15
2019-01-31T16:08:27.811Z,2.90
2019-01-31T16:10:57.661Z,3.10
2019-01-31T16:13:27.364Z,2.52
2019-01-31T16:15:57.280Z,3.20
2019-01-31T16:18:27.243Z,2.92
2019-01-31T16:20:56.696Z,3.30
2019-01-31T16:23:26.158Z,3.27
2019-01-31T16:25:55.852Z,3.37
2019-01-31T16:28:26.403Z,3.47
2019-01-31T16:30:56.284Z,3.17
2019-01-31T16:33:26.035Z,3.95
2019-01-31T16:35:55.778Z,4.15
2019-01-31T16:38:25.718Z,2.83
2019-01-31T16:40:55.622Z,2.75
2019-01-31T16:43:25.648Z,2.75
2019-01-31T16:45:56.175Z,4.83
2019-01-31T16:48:26.197Z,4.85
2019-01-31T16:50:56.641Z,5.00
2019-01-31T16:53:26.481Z,3.52
2019-01-31T16:55:56.487Z,4.55
2019-01-31T16:58:26.365Z,4.20
2019-01-31T17:00:56.248Z,2.92
2019-01-31T17:03:25.911Z,2.50
2019-01-31T17:05:55.860Z,3.15
2019-01-31T17:08:25.943Z,4.53
2019-01-31T17:10:56.075Z,5.17
2019-01-31T17:13:28.370Z,3.80
2019-01-31T17:15:57.460Z,4.08
2019-01-31T17:18:27.129Z,8.20
2019-01-31T17:20:56.760Z,6.37
2019-01-31T17:23:26.302Z,7.30
2019-01-31T17:25:56.484Z,8.65
2019-01-31T17:28:26.206Z,6.45
2019-01-31T17:30:58.519Z,4.60
2019-01-31T17:33:28.293Z,4.70
2019-01-31T17:35:58.394Z,5.45
2019-01-31T17:38:28.780Z,6.72
2019-01-31T17:40:58.705Z,5.05
2019-01-31T17:43:28.937Z,7.22
2019-01-31T17:45:59.301Z,8.73
2019-01-31T17:48:28.913Z,6.72
2019-01-31T17:50:59.490Z,7.45
2019-01-31T17:53:32.154Z,7.08
2019-01-31T17:56:01.754Z,7.05
2019-01-31T17:58:32.715Z,5.22
2019-01-31T18:01:04.861Z,4.37
2019-01-31T18:03:34.817Z,6.72
2019-01-31T18:06:04.796Z,5.65
2019-01-31T18:08:34.636Z,7.22
2019-01-31T18:11:04.702Z,6.00
2019-01-31T18:13:34.461Z,5.05
2019-01-31T18:16:04.664Z,6.22
2019-01-31T18:18:34.163Z,5.72
2019-01-31T18:21:03.849Z,8.33
2019-01-31T18:23:33.518Z,6.62
2019-01-31T18:26:03.465Z,7.62
2019-01-31T18:28:33.628Z,8.63
2019-01-31T18:31:03.571Z,8.75
2019-01-31T18:33:34.808Z,7.22
2019-01-31T18:36:06.695Z,8.60
2019-01-31T18:38:36.654Z,6.75
2019-01-31T18:41:07.314Z,7.40
2019-01-31T18:43:37.187Z,15.88
2019-01-31T18:46:08.424Z,24.40
2019-01-31T18:48:38.541Z,8.40
2019-01-31T18:51:08.518Z,9.20
2019-01-31T18:53:38.369Z,9.33
2019-01-31T18:56:09.039Z,9.15
2019-01-31T18:58:38.743Z,8.65
2019-01-31T19:01:08.687Z,10.63
2019-01-31T19:03:38.878Z,10.75
2019-01-31T19:06:09.119Z,15.10
2019-01-31T19:08:39.467Z,33.15
2019-01-31T19:11:09.540Z,50.83
2019-01-31T19:13:39.163Z,52.23
2019-01-31T19:16:11.247Z,59.00
2019-01-31T19:18:41.848Z,44.30
2019-01-31T19:21:12.380Z,56.88
2019-01-31T19:23:42.507Z,105.27
2019-01-31T19:26:12.881Z,57.85
2019-01-31T19:28:43.261Z,61.05
2019-01-31T19:31:13.145Z,52.30
2019-01-31T19:33:43.474Z,38.42
2019-01-31T19:36:14.203Z,43.98
2019-01-31T19:38:44.318Z,58.95
2019-01-31T19:41:14.913Z,59.03
2019-01-31T19:43:45.754Z,64.65
2019-01-31T19:46:16.947Z,78.85
2019-01-31T19:48:47.723Z,92.88
2019-01-31T19:51:17.535Z,61.40
2019-01-31T19:53:48.539Z,57.73
2019-01-31T19:56:20.270Z,65.17
2019-01-31T19:58:50.101Z,56.50
2019-01-31T20:01:20.608Z,57.83
2019-01-31T20:03:51.512Z,61.35
2019-01-31T20:06:21.634Z,68.37
2019-01-31T20:08:53.674Z,62.17
2019-01-31T20:11:23.916Z,72.60
2019-01-31T20:13:54.005Z,208.30
2019-01-31T20:16:29.174Z,181.52
2019-01-31T20:18:56.147Z,180.72
2019-01-31T20:21:25.819Z,103.75
2019-01-31T20:23:55.603Z,64.50
2019-01-31T20:26:25.244Z,58.65
2019-01-31T20:28:56.054Z,56.70
2019-01-31T20:31:25.976Z,62.48
2019-01-31T20:33:55.928Z,56.05
2019-01-31T20:36:25.913Z,65.22
2019-01-31T20:38:56.281Z,55.83
2019-01-31T20:41:27.555Z,59.73
2019-01-31T20:43:57.806Z,58.60
2019-01-31T20:46:39.497Z,59.80
2019-01-31T20:48:59.760Z,54.70
2019-01-31T20:51:29.362Z,53.73
2019-01-31T20:53:59.152Z,52.67
2019-01-31T20:56:29.348Z,55.38
2019-01-31T20:58:59.239Z,54.42
2019-01-31T21:01:29.010Z,48.75
2019-01-31T21:03:58.847Z,54.15
2019-01-31T21:06:29.079Z,48.02
2019-01-31T21:08:58.731Z,56.95
2019-01-31T21:11:28.543Z,51.75
2019-01-31T21:13:58.538Z,52.38
2019-01-31T21:16:28.949Z,52.85
2019-01-31T21:18:59.052Z,50.70
2019-01-31T21:21:29.151Z,50.67
2019-01-31T21:23:58.913Z,50.33
2019-01-31T21:26:28.621Z,58.35
2019-01-31T21:28:58.508Z,67.20
2019-01-31T21:31:28.222Z,76.75
2019-01-31T21:33:57.785Z,69.47
2019-01-31T21:36:27.411Z,71.02
2019-01-31T21:38:56.869Z,68.37
2019-01-31T21:41:26.503Z,60.17
2019-01-31T21:43:56.128Z,64.03
2019-01-31T21:46:25.893Z,60.30
2019-01-31T21:48:55.474Z,52.62
2019-01-31T21:51:25.341Z,46.98
2019-01-31T21:53:55.155Z,42.10
2019-01-31T21:56:24.678Z,46.33
2019-01-31T21:58:54.427Z,46.13
2019-01-31T22:01:23.878Z,45.52
2019-01-31T22:03:53.398Z,45.12
2019-01-31T22:06:23.016Z,42.60
2019-01-31T22:08:52.591Z,43.68
2019-01-31T22:11:22.087Z,43.73
2019-01-31T22:13:51.636Z,40.38
2019-01-31T22:16:21.803Z,39.85
2019-01-31T22:18:51.480Z,44.08
2019-01-31T22:21:21.154Z,39.18
2019-01-31T22:23:51.577Z,32.40
2019-01-31T22:26:21.151Z,37.33
2019-01-31T22:28:50.652Z,40.38
2019-01-31T22:31:20.232Z,35.50
2019-01-31T22:33:49.692Z,39.73
2019-01-31T22:36:19.867Z,40.25
2019-01-31T22:38:49.466Z,37.53
2019-01-31T22:41:18.893Z,42.45
2019-01-31T22:43:48.532Z,40.30
2019-01-31T22:46:21.100Z,44.20
2019-01-31T22:48:49.356Z,40.35
2019-01-31T22:51:18.765Z,40.28
2019-01-31T22:53:48.463Z,42.35
2019-01-31T22:56:17.933Z,36.95
2019-01-31T22:58:47.775Z,37.25
2019-01-31T23:01:42.745Z,33.85
2019-01-31T23:04:12.565Z,32.42
2019-01-31T23:06:42.135Z,27.95
2019-01-31T23:09:13.075Z,32.08
2019-01-31T23:11:43.093Z,35.25
2019-01-31T23:14:12.799Z,38.63
2019-01-31T23:16:42.317Z,39.98
2019-01-31T23:19:11.836Z,38.28
2019-01-31T23:21:41.472Z,41.55
2019-01-31T23:24:10.910Z,46.25
2019-01-31T23:26:40.804Z,48.58
2019-01-31T23:29:10.281Z,46.33
2019-01-31T23:31:39.698Z,46.03
2019-01-31T23:34:09.234Z,42.53
2019-01-31T23:36:38.660Z,39.35
2019-01-31T23:39:10.989Z,32.80
2019-01-31T23:41:40.568Z,23.98
2019-01-31T23:44:10.226Z,25.92
2019-01-31T23:46:39.616Z,24.00
2019-01-31T23:49:09.126Z,24.83
2019-01-31T23:51:38.939Z,24.80
2019-01-31T23:54:08.410Z,28.83
2019-01-31T23:56:37.963Z,23.00
2019-01-31T23:59:07.353Z,23.47
